Time;durP1;ratioP1;P1;durP2;ratioP2;P2;SDS_P1;SDS_P2;PMS_P1;PMS_P2;Temp;Humidity;BMP_temperature;BMP_pressure;BME280_temperature;BME280_humidity;BME280_pressure;Samples;Min_cycle;Max_cycle;Signal;HPM_P1;HPM_P2
2023/04/24 00:00:50;;;;;;;5.77;4.30;;;;;;;;;;5069406;28;20032;-62
2023/04/24 00:03:20;;;;;;;6.20;4.03;;;;;;;;;;5069035;28;20066;-62
2023/04/24 00:05:47;;;;;;;6.50;4.67;;;;;;;;;;5069115;28;20055;-62
2023/04/24 00:08:13;;;;;;;7.80;5.03;;;;;;;;;;5069594;28;20052;-62
2023/04/24 00:10:39;;;;;;;7.10;4.83;;;;;;;;;;5069461;28;20094;-62
2023/04/24 00:13:05;;;;;;;6.40;4.37;;;;;;;;;;5069018;28;20043;-62
2023/04/24 00:15:31;;;;;;;7.63;5.07;;;;;;;;;;5048986;28;20040;-62
2023/04/24 00:17:57;;;;;;;8.87;5.87;;;;;;;;;;5049330;28;20053;-63
2023/04/24 00:20:23;;;;;;;6.33;4.90;;;;;;;;;;5048124;28;20053;-62
2023/04/24 00:22:49;;;;;;;6.40;5.17;;;;;;;;;;5049288;28;20567;-63
2023/04/24 00:25:15;;;;;;;8.13;5.20;;;;;;;;;;5049114;28;20388;-62
2023/04/24 00:27:41;;;;;;;8.03;6.00;;;;;;;;;;5048673;28;20423;-62
2023/04/24 00:30:08;;;;;;;7.03;5.87;;;;;;;;;;5048733;28;20059;-62
2023/04/24 00:32:34;;;;;;;8.20;6.30;;;;;;;;;;5049143;28;20103;-62
2023/04/24 00:35:00;;;;;;;9.00;6.40;;;;;;;;;;5048740;28;20500;-62
2023/04/24 00:37:26;;;;;;;12.27;6.70;;;;;;;;;;5048927;28;20045;-62
2023/04/24 00:39:52;;;;;;;11.00;7.50;;;;;;;;;;5048446;28;20041;-62
2023/04/24 00:42:18;;;;;;;13.87;7.50;;;;;;;;;;5048867;28;20045;-62
2023/04/24 00:44:44;;;;;;;12.40;8.07;;;;;;;;;;5048628;28;20462;-62
2023/04/24 00:47:11;;;;;;;11.23;8.03;;;;;;;;;;5049756;28;20048;-62
2023/04/24 00:49:37;;;;;;;14.17;7.90;;;;;;;;;;5052758;28;20103;-62
2023/04/24 00:52:07;;;;;;;11.73;8.90;;;;;;;;;;5052606;28;20044;-62
2023/04/24 00:54:33;;;;;;;11.53;7.67;;;;;;;;;;5052427;28;20049;-62
2023/04/24 00:57:01;;;;;;;14.90;8.73;;;;;;;;;;5052503;28;20045;-62
2023/04/24 00:59:27;;;;;;;11.13;8.43;;;;;;;;;;5052732;28;20124;-62
2023/04/24 01:01:53;;;;;;;12.17;8.13;;;;;;;;;;5052299;28;20048;-62
2023/04/24 01:04:20;;;;;;;10.30;7.13;;;;;;;;;;5052691;28;20052;-62
2023/04/24 01:06:46;;;;;;;10.60;7.00;;;;;;;;;;5052327;28;20181;-62
2023/04/24 01:09:13;;;;;;;10.50;7.27;;;;;;;;;;5052728;28;20037;-62
2023/04/24 01:11:40;;;;;;;10.53;6.93;;;;;;;;;;5052586;28;20084;-62
2023/04/24 01:14:06;;;;;;;8.73;7.27;;;;;;;;;;5059790;28;20040;-62
2023/04/24 01:16:33;;;;;;;10.43;8.33;;;;;;;;;;5071201;28;20138;-62
2023/04/24 01:18:59;;;;;;;9.93;8.47;;;;;;;;;;5072243;28;20521;-62
2023/04/24 01:21:30;;;;;;;9.50;8.50;;;;;;;;;;5072006;28;20044;-62
2023/04/24 01:23:56;;;;;;;14.53;9.67;;;;;;;;;;5072154;28;20045;-62
2023/04/24 01:26:23;;;;;;;9.83;8.83;;;;;;;;;;5072622;28;20044;-62
2023/04/24 01:28:49;;;;;;;9.47;8.47;;;;;;;;;;5071786;28;20122;-62
2023/04/24 01:31:15;;;;;;;9.70;8.77;;;;;;;;;;5071526;28;20110;-62
2023/04/24 01:33:42;;;;;;;11.17;9.03;;;;;;;;;;5072111;28;20052;-62
2023/04/24 01:36:09;;;;;;;9.63;8.73;;;;;;;;;;5072007;28;20048;-62
2023/04/24 01:38:35;;;;;;;10.93;8.37;;;;;;;;;;5072068;28;20418;-62
2023/04/24 01:41:01;;;;;;;9.20;8.07;;;;;;;;;;5071920;28;20143;-63
2023/04/24 01:43:27;;;;;;;9.03;8.13;;;;;;;;;;5071758;28;20469;-62
2023/04/24 01:45:53;;;;;;;8.93;8.07;;;;;;;;;;5071183;28;20044;-62
2023/04/24 01:48:19;;;;;;;9.33;8.30;;;;;;;;;;5071938;28;20409;-62
2023/04/24 01:50:45;;;;;;;10.30;8.67;;;;;;;;;;5070273;28;20044;-62
2023/04/24 01:53:11;;;;;;;10.73;8.77;;;;;;;;;;5071209;28;20142;-62
2023/04/24 01:55:38;;;;;;;8.97;8.07;;;;;;;;;;5071955;28;20128;-62
2023/04/24 01:58:04;;;;;;;9.87;7.97;;;;;;;;;;5071316;28;20044;-62
2023/04/24 02:00:30;;;;;;;10.13;8.83;;;;;;;;;;5071644;28;20086;-62
2023/04/24 02:02:56;;;;;;;11.60;9.00;;;;;;;;;;5071059;28;20465;-62
2023/04/24 02:05:22;;;;;;;10.53;8.70;;;;;;;;;;5071324;28;20489;-62
2023/04/24 02:07:48;;;;;;;10.03;9.03;;;;;;;;;;5071418;28;20510;-62
2023/04/24 02:10:14;;;;;;;10.13;9.00;;;;;;;;;;5071222;28;20113;-62
2023/04/24 02:12:40;;;;;;;11.37;9.10;;;;;;;;;;5071333;28;20072;-62
2023/04/24 02:15:06;;;;;;;12.33;8.87;;;;;;;;;;5054893;28;20049;-61
2023/04/24 02:17:32;;;;;;;9.43;8.43;;;;;;;;;;5051056;28;20040;-62
2023/04/24 02:19:58;;;;;;;11.90;9.60;;;;;;;;;;5051116;28;20424;-62
2023/04/24 02:22:24;;;;;;;11.30;8.93;;;;;;;;;;5051133;28;20052;-62
2023/04/24 02:24:50;;;;;;;9.73;8.73;;;;;;;;;;5051030;28;20052;-62
2023/04/24 02:27:16;;;;;;;11.23;8.87;;;;;;;;;;5051124;28;20405;-62
2023/04/24 02:29:42;;;;;;;12.03;9.43;;;;;;;;;;5050479;28;20288;-62
2023/04/24 02:32:11;;;;;;;9.70;8.70;;;;;;;;;;5051093;28;20048;-62
2023/04/24 02:34:37;;;;;;;9.73;8.53;;;;;;;;;;5050854;28;20101;-62
2023/04/24 02:37:03;;;;;;;10.30;9.07;;;;;;;;;;5049582;28;20641;-62
2023/04/24 02:39:29;;;;;;;9.80;8.57;;;;;;;;;;5050956;28;20127;-62
2023/04/24 02:41:55;;;;;;;10.10;8.43;;;;;;;;;;5050090;28;20088;-62
2023/04/24 02:44:22;;;;;;;9.77;8.77;;;;;;;;;;5050749;28;20083;-62
2023/04/24 02:46:48;;;;;;;11.53;10.33;;;;;;;;;;5050561;28;20510;-62
2023/04/24 02:49:15;;;;;;;12.13;10.03;;;;;;;;;;5050627;28;20037;-62
2023/04/24 02:51:41;;;;;;;10.83;9.30;;;;;;;;;;5049993;28;20415;-62
2023/04/24 02:54:09;;;;;;;11.70;10.37;;;;;;;;;;5049584;28;20517;-62
2023/04/24 02:56:35;;;;;;;11.43;10.20;;;;;;;;;;5049511;28;20555;-62
2023/04/24 02:59:01;;;;;;;12.07;9.70;;;;;;;;;;5049738;28;20041;-62
2023/04/24 03:01:27;;;;;;;12.67;10.40;;;;;;;;;;5049895;28;20045;-62
2023/04/24 03:03:53;;;;;;;11.80;10.10;;;;;;;;;;5049526;28;20583;-62
2023/04/24 03:06:21;;;;;;;11.10;9.77;;;;;;;;;;5049657;28;20045;-62
2023/04/24 03:08:47;;;;;;;14.63;11.10;;;;;;;;;;5049679;28;20049;-62
2023/04/24 03:11:13;;;;;;;9.80;8.80;;;;;;;;;;5049309;28;20410;-62
2023/04/24 03:13:39;;;;;;;12.97;10.30;;;;;;;;;;5053560;28;20041;-62
2023/04/24 03:16:05;;;;;;;13.70;9.50;;;;;;;;;;5069343;28;20040;-62
2023/04/24 03:18:31;;;;;;;8.70;7.83;;;;;;;;;;5068991;28;20074;-63
2023/04/24 03:20:57;;;;;;;9.87;8.43;;;;;;;;;;5069448;28;20036;-62
2023/04/24 03:23:23;;;;;;;6.97;6.27;;;;;;;;;;5069271;28;20513;-62
2023/04/24 03:25:49;;;;;;;9.90;7.13;;;;;;;;;;5068875;28;20135;-62
2023/04/24 03:28:15;;;;;;;10.70;7.97;;;;;;;;;;5069383;28;20143;-61
2023/04/24 03:30:41;;;;;;;10.17;7.53;;;;;;;;;;5069367;28;20052;-62
2023/04/24 03:33:08;;;;;;;9.97;8.33;;;;;;;;;;5068714;28;20054;-62
2023/04/24 03:35:34;;;;;;;11.50;8.13;;;;;;;;;;5069303;28;20044;-62
2023/04/24 03:38:00;;;;;;;8.83;6.83;;;;;;;;;;5068885;28;20090;-62
2023/04/24 03:40:26;;;;;;;8.70;6.80;;;;;;;;;;5069235;28;20049;-62
2023/04/24 03:42:52;;;;;;;7.53;5.33;;;;;;;;;;5068758;28;20056;-62
2023/04/24 03:45:18;;;;;;;7.03;5.90;;;;;;;;;;5068349;28;20076;-62
2023/04/24 03:47:44;;;;;;;7.30;5.37;;;;;;;;;;5068920;28;20040;-62
2023/04/24 03:50:11;;;;;;;6.13;4.10;;;;;;;;;;5068595;28;20506;-62
2023/04/24 03:52:37;;;;;;;5.43;4.37;;;;;;;;;;5068699;28;20415;-61
2023/04/24 03:55:03;;;;;;;6.77;4.70;;;;;;;;;;5068878;28;20113;-62
2023/04/24 03:57:29;;;;;;;4.20;3.40;;;;;;;;;;5067993;28;20811;-62
2023/04/24 03:59:55;;;;;;;5.10;3.87;;;;;;;;;;5068621;28;20048;-62
2023/04/24 04:02:21;;;;;;;8.20;6.43;;;;;;;;;;5068869;28;20139;-62
2023/04/24 04:04:47;;;;;;;12.20;8.60;;;;;;;;;;5068189;28;20123;-62
2023/04/24 04:07:13;;;;;;;14.57;9.03;;;;;;;;;;5068975;28;20495;-62
2023/04/24 04:09:39;;;;;;;15.77;9.20;;;;;;;;;;5068581;28;20040;-62
2023/04/24 04:12:05;;;;;;;14.63;8.77;;;;;;;;;;5068702;28;20049;-62
2023/04/24 04:14:31;;;;;;;12.57;7.80;;;;;;;;;;5057055;28;20033;-62
2023/04/24 04:16:57;;;;;;;13.97;9.10;;;;;;;;;;5047986;28;20052;-62
2023/04/24 04:19:23;;;;;;;14.97;9.70;;;;;;;;;;5048808;28;20052;-62
2023/04/24 04:21:52;;;;;;;15.27;10.00;;;;;;;;;;5048564;28;20083;-62
2023/04/24 04:24:20;;;;;;;18.03;9.77;;;;;;;;;;5048390;28;20060;-62
2023/04/24 04:26:46;;;;;;;11.77;8.23;;;;;;;;;;5048450;28;20106;-62
2023/04/24 04:29:13;;;;;;;13.93;7.90;;;;;;;;;;5047938;28;20140;-62
2023/04/24 04:31:39;;;;;;;12.43;7.47;;;;;;;;;;5048210;28;20499;-62
2023/04/24 04:34:05;;;;;;;11.23;7.20;;;;;;;;;;5048078;28;20400;-63
2023/04/24 04:36:32;;;;;;;15.40;8.17;;;;;;;;;;5047941;28;21029;-62
2023/04/24 04:38:59;;;;;;;10.20;6.30;;;;;;;;;;5048245;28;20056;-62
2023/04/24 04:41:26;;;;;;;8.40;5.30;;;;;;;;;;5048125;28;20102;-62
2023/04/24 04:43:52;;;;;;;8.97;5.70;;;;;;;;;;5048114;28;20049;-62
2023/04/24 04:46:18;;;;;;;7.37;5.27;;;;;;;;;;5047797;28;20053;-62
2023/04/24 04:48:45;;;;;;;7.13;4.27;;;;;;;;;;5047990;28;20355;-62
2023/04/24 04:51:11;;;;;;;6.60;4.57;;;;;;;;;;5048192;28;20419;-62
2023/04/24 04:53:37;;;;;;;8.40;5.43;;;;;;;;;;5047415;28;20053;-62
2023/04/24 04:56:03;;;;;;;8.30;4.87;;;;;;;;;;5047928;28;20045;-62
2023/04/24 04:58:30;;;;;;;7.73;6.07;;;;;;;;;;5047840;28;20644;-62
2023/04/24 05:00:57;;;;;;;9.73;5.40;;;;;;;;;;5047495;28;20052;-62
2023/04/24 05:03:23;;;;;;;10.57;6.00;;;;;;;;;;5048082;28;20051;-62
2023/04/24 05:05:49;;;;;;;9.23;5.90;;;;;;;;;;5047801;28;21140;-62
2023/04/24 05:08:15;;;;;;;11.33;6.50;;;;;;;;;;5048013;28;20041;-62
2023/04/24 05:10:41;;;;;;;13.43;7.23;;;;;;;;;;5047711;28;20045;-62
2023/04/24 05:13:07;;;;;;;15.47;7.07;;;;;;;;;;5047576;28;20041;-62
2023/04/24 05:15:33;;;;;;;9.17;5.27;;;;;;;;;;5047903;28;20119;-62
2023/04/24 05:17:59;;;;;;;7.73;4.80;;;;;;;;;;5047560;28;20587;-62
2023/04/24 05:20:25;;;;;;;11.13;6.10;;;;;;;;;;5047980;28;20446;-63
2023/04/24 05:22:51;;;;;;;8.50;5.70;;;;;;;;;;5047651;28;20503;-62
2023/04/24 05:25:17;;;;;;;12.63;6.93;;;;;;;;;;5047660;28;20099;-62
2023/04/24 05:27:44;;;;;;;18.17;8.13;;;;;;;;;;5046943;28;20060;-62
2023/04/24 05:30:10;;;;;;;17.37;7.97;;;;;;;;;;5047495;28;20061;-63
2023/04/24 05:32:36;;;;;;;19.63;8.00;;;;;;;;;;5047814;28;20171;-62
2023/04/24 05:35:02;;;;;;;21.00;8.53;;;;;;;;;;5050206;28;20087;-63
2023/04/24 05:37:28;;;;;;;11.30;6.60;;;;;;;;;;5051236;28;20190;-63
2023/04/24 05:39:54;;;;;;;17.97;7.27;;;;;;;;;;5051297;28;20431;-63
2023/04/24 05:42:20;;;;;;;9.20;4.93;;;;;;;;;;5050864;28;20084;-63
2023/04/24 05:44:46;;;;;;;13.73;5.53;;;;;;;;;;5050657;28;20049;-63
2023/04/24 05:47:12;;;;;;;11.20;5.53;;;;;;;;;;5051220;28;20056;-63
2023/04/24 05:49:38;;;;;;;18.27;5.33;;;;;;;;;;5050942;28;20045;-63
2023/04/24 05:52:06;;;;;;;15.37;6.03;;;;;;;;;;5050819;28;20059;-63
2023/04/24 05:54:32;;;;;;;15.63;6.63;;;;;;;;;;5050533;28;20052;-63
2023/04/24 05:56:58;;;;;;;21.00;7.93;;;;;;;;;;5050850;28;20103;-63
2023/04/24 05:59:24;;;;;;;14.10;7.07;;;;;;;;;;5050614;28;20076;-64
2023/04/24 06:01:50;;;;;;;29.13;9.00;;;;;;;;;;5050393;28;20052;-63
2023/04/24 06:04:16;;;;;;;28.50;9.40;;;;;;;;;;5050692;28;20045;-63
2023/04/24 06:06:42;;;;;;;121.70;24.23;;;;;;;;;;5050634;28;20053;-63
2023/04/24 06:09:08;;;;;;;25.23;9.43;;;;;;;;;;5050780;28;20095;-63
2023/04/24 06:11:35;;;;;;;19.63;8.80;;;;;;;;;;5050106;28;20095;-63
2023/04/24 06:14:01;;;;;;;27.93;11.40;;;;;;;;;;5057740;28;20075;-63
2023/04/24 06:16:27;;;;;;;20.27;10.30;;;;;;;;;;5070786;28;20118;-63
2023/04/24 06:18:53;;;;;;;20.27;8.97;;;;;;;;;;5070719;28;20045;-63
2023/04/24 06:21:19;;;;;;;34.93;10.97;;;;;;;;;;5070370;28;20090;-63
2023/04/24 06:23:47;;;;;;;24.00;8.30;;;;;;;;;;5070468;28;20056;-63
2023/04/24 06:26:13;;;;;;;22.57;7.47;;;;;;;;;;5069092;28;20425;-63
2023/04/24 06:28:39;;;;;;;24.60;8.53;;;;;;;;;;5069886;28;20051;-63
2023/04/24 06:31:05;;;;;;;46.87;10.57;;;;;;;;;;5070299;28;20045;-63
2023/04/24 06:33:31;;;;;;;41.17;10.80;;;;;;;;;;5070286;28;20055;-63
2023/04/24 06:35:57;;;;;;;43.30;11.20;;;;;;;;;;5069290;28;20059;-63
2023/04/24 06:38:23;;;;;;;21.27;8.83;;;;;;;;;;5070268;28;20044;-63
2023/04/24 06:40:49;;;;;;;26.37;10.37;;;;;;;;;;5070005;28;20115;-63
2023/04/24 06:43:15;;;;;;;41.00;11.30;;;;;;;;;;5069495;28;20048;-63
2023/04/24 06:45:43;;;;;;;33.63;11.60;;;;;;;;;;5068760;28;20494;-62
2023/04/24 06:48:09;;;;;;;37.30;10.50;;;;;;;;;;5069384;28;20040;-64
2023/04/24 06:50:36;;;;;;;31.23;9.17;;;;;;;;;;5069517;28;20167;-64
2023/04/24 06:53:02;;;;;;;24.77;11.10;;;;;;;;;;5069803;28;20387;-62
2023/04/24 06:55:28;;;;;;;28.27;10.93;;;;;;;;;;5069849;28;20044;-63
2023/04/24 06:57:54;;;;;;;22.03;8.97;;;;;;;;;;5069044;28;20124;-63
2023/04/24 07:00:20;;;;;;;15.27;6.90;;;;;;;;;;5069549;28;20048;-63
2023/04/24 07:02:46;;;;;;;22.00;9.20;;;;;;;;;;5069591;28;20213;-62
2023/04/24 07:05:12;;;;;;;20.97;8.47;;;;;;;;;;5069589;28;20051;-62
2023/04/24 07:07:40;;;;;;;20.43;10.43;;;;;;;;;;5069478;28;20044;-62
2023/04/24 07:10:06;;;;;;;30.80;11.47;;;;;;;;;;5069633;28;20063;-62
2023/04/24 07:12:32;;;;;;;40.77;12.57;;;;;;;;;;5068994;28;20052;-63
2023/04/24 07:14:58;;;;;;;24.67;10.33;;;;;;;;;;5054071;28;20053;-62
2023/04/24 07:17:25;;;;;;;27.87;12.27;;;;;;;;;;5048291;28;20057;-62
2023/04/24 07:19:51;;;;;;;22.83;11.07;;;;;;;;;;5049533;28;20755;-62
2023/04/24 07:22:18;;;;;;;37.37;12.50;;;;;;;;;;5048833;28;20041;-62
2023/04/24 07:24:44;;;;;;;23.77;11.53;;;;;;;;;;5049367;28;20061;-63
2023/04/24 07:27:11;;;;;;;33.67;12.60;;;;;;;;;;5049357;28;20049;-62
2023/04/24 07:29:38;;;;;;;31.33;12.10;;;;;;;;;;5049356;28;20057;-63
2023/04/24 07:32:04;;;;;;;31.07;12.47;;;;;;;;;;5048929;28;20620;-62
2023/04/24 07:34:30;;;;;;;36.50;12.13;;;;;;;;;;5049250;28;20041;-62
2023/04/24 07:36:56;;;;;;;29.53;11.00;;;;;;;;;;5048819;28;20504;-62
2023/04/24 07:39:22;;;;;;;28.53;12.03;;;;;;;;;;5048454;28;20100;-63
2023/04/24 07:41:48;;;;;;;28.37;10.93;;;;;;;;;;5048494;28;20041;-62
2023/04/24 07:44:14;;;;;;;21.37;9.93;;;;;;;;;;5048749;28;20426;-63
2023/04/24 07:46:41;;;;;;;38.83;11.67;;;;;;;;;;5048148;28;20049;-62
2023/04/24 07:49:07;;;;;;;17.73;8.97;;;;;;;;;;5048239;28;20060;-62
2023/04/24 07:51:37;;;;;;;19.77;9.17;;;;;;;;;;5048047;28;20446;-62
2023/04/24 07:54:04;;;;;;;21.93;10.33;;;;;;;;;;5048293;28;20040;-62
2023/04/24 07:56:31;;;;;;;19.67;9.73;;;;;;;;;;5047920;28;20053;-62
2023/04/24 07:58:57;;;;;;;20.00;9.93;;;;;;;;;;5047810;28;20060;-63
2023/04/24 08:01:23;;;;;;;19.93;8.27;;;;;;;;;;5048257;28;20056;-62
2023/04/24 08:03:49;;;;;;;23.23;8.73;;;;;;;;;;5047823;28;20057;-62
2023/04/24 08:06:15;;;;;;;17.63;7.57;;;;;;;;;;5048161;28;20053;-62
2023/04/24 08:08:41;;;;;;;12.67;6.70;;;;;;;;;;5048179;28;20045;-62
2023/04/24 08:11:07;;;;;;;13.03;6.57;;;;;;;;;;5048207;28;20053;-62
2023/04/24 08:13:33;;;;;;;15.00;6.50;;;;;;;;;;5048212;28;20045;-62
2023/04/24 08:15:59;;;;;;;22.93;9.47;;;;;;;;;;5047105;28;20044;-62
2023/04/24 08:18:26;;;;;;;28.00;10.67;;;;;;;;;;5047760;28;20056;-63
2023/04/24 08:20:52;;;;;;;34.10;13.20;;;;;;;;;;5047589;28;20048;-62
2023/04/24 08:23:18;;;;;;;33.27;12.33;;;;;;;;;;5048132;28;20422;-62
2023/04/24 08:25:44;;;;;;;36.43;14.07;;;;;;;;;;5047457;28;20044;-62
2023/04/24 08:28:10;;;;;;;38.67;15.43;;;;;;;;;;5047574;28;20135;-62
2023/04/24 08:30:38;;;;;;;35.60;15.73;;;;;;;;;;5047866;28;20091;-63
2023/04/24 08:33:04;;;;;;;54.93;20.40;;;;;;;;;;5046569;28;20487;-62
2023/04/24 08:35:30;;;;;;;40.10;18.40;;;;;;;;;;5046470;28;20053;-62
2023/04/24 08:37:56;;;;;;;42.23;17.47;;;;;;;;;;5047215;28;20045;-62
2023/04/24 08:40:27;;;;;;;49.57;20.47;;;;;;;;;;5047684;28;20041;-63
2023/04/24 08:42:56;;;;;;;76.73;25.33;;;;;;;;;;5047362;28;20059;-63
2023/04/24 08:45:22;;;;;;;47.23;21.40;;;;;;;;;;5047943;28;20194;-63
2023/04/24 08:47:49;;;;;;;78.53;27.17;;;;;;;;;;5047613;28;20053;-63
2023/04/24 08:50:15;;;;;;;70.97;26.03;;;;;;;;;;5046868;28;20510;-62
2023/04/24 08:52:43;;;;;;;54.37;25.80;;;;;;;;;;5047549;28;20603;-63
2023/04/24 08:55:09;;;;;;;93.57;31.90;;;;;;;;;;5047673;28;20056;-62
2023/04/24 08:57:35;;;;;;;102.33;34.47;;;;;;;;;;5047227;28;20060;-63
2023/04/24 09:00:03;;;;;;;101.07;33.97;;;;;;;;;;5046988;28;20542;-63
2023/04/24 09:02:29;;;;;;;70.63;28.47;;;;;;;;;;5047524;28;20045;-63
2023/04/24 09:04:56;;;;;;;72.83;29.47;;;;;;;;;;5047765;28;20052;-63
2023/04/24 09:07:25;;;;;;;82.07;30.67;;;;;;;;;;5047311;28;20128;-63
2023/04/24 09:09:52;;;;;;;50.77;23.07;;;;;;;;;;5050263;28;20538;-62
2023/04/24 09:12:19;;;;;;;43.90;22.37;;;;;;;;;;5051294;28;20051;-63
2023/04/24 09:14:46;;;;;;;76.30;27.60;;;;;;;;;;5051452;28;20059;-62
2023/04/24 09:17:12;;;;;;;55.87;24.67;;;;;;;;;;5050643;28;20057;-63
2023/04/24 09:19:38;;;;;;;45.60;21.70;;;;;;;;;;5051007;28;20541;-62
2023/04/24 09:22:08;;;;;;;80.00;28.07;;;;;;;;;;5051294;28;20051;-62
2023/04/24 09:24:35;;;;;;;102.23;35.10;;;;;;;;;;5051165;28;20049;-63
2023/04/24 09:27:01;;;;;;;68.77;28.93;;;;;;;;;;5050865;28;20049;-62
2023/04/24 09:29:28;;;;;;;32.43;20.43;;;;;;;;;;5050116;28;20095;-63
2023/04/24 09:31:54;;;;;;;61.37;25.13;;;;;;;;;;5051021;28;20127;-62
2023/04/24 09:34:27;;;;;;;41.73;20.67;;;;;;;;;;5050977;28;20605;-62
2023/04/24 09:36:54;;;;;;;30.60;18.13;;;;;;;;;;5050775;28;20127;-62
2023/04/24 09:39:21;;;;;;;45.57;22.73;;;;;;;;;;5050718;28;20080;-62
2023/04/24 09:41:58;;;;;;;41.07;18.47;;;;;;;;;;5050353;28;20041;-63
2023/04/24 09:44:26;;;;;;;52.47;22.10;;;;;;;;;;5050147;28;20059;-62
2023/04/24 09:46:56;;;;;;;36.67;19.57;;;;;;;;;;5050703;28;20049;-62
2023/04/24 09:49:23;;;;;;;44.47;20.23;;;;;;;;;;5050738;28;20045;-62
2023/04/24 09:51:50;;;;;;;48.27;21.20;;;;;;;;;;5050742;28;20145;-63
2023/04/24 09:54:17;;;;;;;27.33;15.00;;;;;;;;;;5048552;28;20412;-63
2023/04/24 09:56:45;;;;;;;31.37;14.23;;;;;;;;;;5050637;28;20048;-62
2023/04/24 09:59:11;;;;;;;32.67;16.57;;;;;;;;;;5050301;28;20053;-62
2023/04/24 10:01:38;;;;;;;42.27;15.87;;;;;;;;;;5050347;28;20045;-62
2023/04/24 10:04:04;;;;;;;42.73;17.23;;;;;;;;;;5050267;28;20048;-62
2023/04/24 10:06:34;;;;;;;27.73;15.00;;;;;;;;;;5048624;28;20110;-62
2023/04/24 10:09:00;;;;;;;23.60;11.80;;;;;;;;;;5050265;28;20048;-63
2023/04/24 10:11:30;;;;;;;20.17;9.80;;;;;;;;;;5050091;28;20118;-62
2023/04/24 10:13:57;;;;;;;23.20;10.23;;;;;;;;;;5050019;28;20044;-63
2023/04/24 10:16:23;;;;;;;15.33;8.83;;;;;;;;;;5050129;28;20568;-62
2023/04/24 10:18:50;;;;;;;16.87;7.57;;;;;;;;;;5048541;28;20395;-62
2023/04/24 10:21:17;;;;;;;11.77;6.20;;;;;;;;;;5049607;28;20067;-63
2023/04/24 10:23:45;;;;;;;24.80;7.07;;;;;;;;;;5049770;28;20049;-62
2023/04/24 10:26:17;;;;;;;13.73;5.43;;;;;;;;;;5050053;28;20410;-62
2023/04/24 10:28:45;;;;;;;21.53;6.53;;;;;;;;;;5049833;28;20522;-62
2023/04/24 10:31:12;;;;;;;13.20;5.67;;;;;;;;;;5048839;28;20052;-62
2023/04/24 10:33:41;;;;;;;22.73;6.60;;;;;;;;;;5048117;28;20076;-62
2023/04/24 10:36:07;;;;;;;17.93;5.80;;;;;;;;;;5049390;28;20056;-62
2023/04/24 10:38:34;;;;;;;21.80;5.80;;;;;;;;;;5049764;28;20087;-63
2023/04/24 10:41:15;;;;;;;18.03;4.43;;;;;;;;;;5049708;28;20045;-62
2023/04/24 10:43:41;;;;;;;14.40;5.13;;;;;;;;;;5049506;28;20044;-63
2023/04/24 10:46:10;;;;;;;14.10;4.90;;;;;;;;;;5049291;28;20418;-62
2023/04/24 10:48:36;;;;;;;18.00;5.17;;;;;;;;;;5049579;28;20063;-63
2023/04/24 10:51:02;;;;;;;23.63;5.90;;;;;;;;;;5049329;28;20084;-62
2023/04/24 10:53:30;;;;;;;15.37;4.93;;;;;;;;;;5049336;28;20060;-62
2023/04/24 10:56:05;;;;;;;14.80;5.70;;;;;;;;;;5049545;28;20155;-62
2023/04/24 10:58:51;;;;;;;19.00;6.03;;;;;;;;;;5048959;28;20095;-62
2023/04/24 11:01:28;;;;;;;17.90;4.83;;;;;;;;;;5049675;28;20171;-62
2023/04/24 11:03:56;;;;;;;15.23;4.67;;;;;;;;;;5049377;28;20049;-62
2023/04/24 11:06:35;;;;;;;12.07;4.40;;;;;;;;;;5049075;28;20060;-62
2023/04/24 11:09:06;;;;;;;10.43;4.30;;;;;;;;;;5047986;28;20049;-63
2023/04/24 11:11:32;;;;;;;20.37;4.10;;;;;;;;;;5048660;28;20411;-62
2023/04/24 11:13:59;;;;;;;17.57;3.93;;;;;;;;;;5048826;28;20049;-62
2023/04/24 11:16:29;;;;;;;14.13;3.83;;;;;;;;;;5048832;28;20091;-62
2023/04/24 11:19:18;;;;;;;17.53;5.43;;;;;;;;;;5049178;28;20159;-62
2023/04/24 11:22:05;;;;;;;14.77;3.50;;;;;;;;;;5047282;28;20128;-62
2023/04/24 11:24:32;;;;;;;23.10;4.27;;;;;;;;;;5048822;28;20071;-62
2023/04/24 11:27:04;;;;;;;18.87;3.37;;;;;;;;;;5048468;28;20040;-62
2023/04/24 11:29:40;;;;;;;15.10;3.80;;;;;;;;;;5048446;28;20053;-62
2023/04/24 11:32:25;;;;;;;15.33;4.03;;;;;;;;;;5047476;28;20135;-62
2023/04/24 11:34:53;;;;;;;11.87;2.97;;;;;;;;;;5048563;28;20051;-62
2023/04/24 11:37:19;;;;;;;8.53;2.80;;;;;;;;;;5048344;28;20094;-62
2023/04/24 11:39:46;;;;;;;9.50;2.53;;;;;;;;;;5047754;28;20077;-62
2023/04/24 11:42:15;;;;;;;8.47;2.40;;;;;;;;;;5048167;28;20044;-62
2023/04/24 11:44:41;;;;;;;9.30;2.67;;;;;;;;;;5048387;28;20052;-62
2023/04/24 11:47:08;;;;;;;14.50;2.50;;;;;;;;;;5048331;28;20479;-62
2023/04/24 11:49:34;;;;;;;11.07;2.27;;;;;;;;;;5060375;28;20510;-62
2023/04/24 11:52:01;;;;;;;11.30;2.70;;;;;;;;;;5068564;28;20056;-62
2023/04/24 11:54:27;;;;;;;9.90;2.50;;;;;;;;;;5049575;28;20080;-62
2023/04/24 11:56:54;;;;;;;7.03;2.97;;;;;;;;;;5048097;28;20055;-62
2023/04/24 11:59:20;;;;;;;12.90;2.63;;;;;;;;;;5048658;28;20056;-62
2023/04/24 12:01:46;;;;;;;6.23;1.97;;;;;;;;;;5057263;28;20048;-62
2023/04/24 12:04:13;;;;;;;8.70;1.90;;;;;;;;;;5068561;28;20044;-62
2023/04/24 12:06:39;;;;;;;13.10;3.00;;;;;;;;;;5064849;28;20411;-62
2023/04/24 12:09:06;;;;;;;17.20;3.60;;;;;;;;;;5055062;28;20097;-61
2023/04/24 12:11:32;;;;;;;6.07;1.83;;;;;;;;;;5068730;28;20495;-62
2023/04/24 12:13:58;;;;;;;8.23;2.00;;;;;;;;;;5054609;28;20453;-62
2023/04/24 12:16:26;;;;;;;4.50;1.67;;;;;;;;;;5055332;28;20417;-62
2023/04/24 12:18:52;;;;;;;10.50;4.23;;;;;;;;;;5067991;28;20584;-62
2023/04/24 12:21:20;;;;;;;7.50;1.70;;;;;;;;;;5068126;28;20036;-62
2023/04/24 12:23:46;;;;;;;6.17;1.40;;;;;;;;;;5068363;28;20048;-62
2023/04/24 12:26:16;;;;;;;6.50;2.30;;;;;;;;;;5054328;28;20060;-62
2023/04/24 12:28:42;;;;;;;6.10;1.80;;;;;;;;;;5048109;28;20095;-62
2023/04/24 12:31:08;;;;;;;7.00;1.50;;;;;;;;;;5048495;28;20066;-62
2023/04/24 12:33:35;;;;;;;8.43;1.60;;;;;;;;;;5061021;28;20513;-62
2023/04/24 12:36:01;;;;;;;9.30;1.60;;;;;;;;;;5064668;28;20048;-62
2023/04/24 12:38:39;;;;;;;3.03;0.73;;;;;;;;;;5057119;28;20422;-62
2023/04/24 12:41:10;;;;;;;6.87;1.20;;;;;;;;;;5058845;28;20128;-62
2023/04/24 12:43:36;;;;;;;3.97;1.00;;;;;;;;;;5057091;28;20048;-62
2023/04/24 12:46:03;;;;;;;2.57;0.90;;;;;;;;;;5070566;28;20360;-61
2023/04/24 12:48:30;;;;;;;3.83;0.97;;;;;;;;;;5068838;28;20088;-62
2023/04/24 12:51:02;;;;;;;4.03;0.87;;;;;;;;;;5070081;28;20051;-62
2023/04/24 12:53:30;;;;;;;9.15;1.23;;;;;;;;;;5071173;28;20118;-62
2023/04/24 12:55:57;;;;;;;5.13;0.97;;;;;;;;;;5069144;28;20545;-62
2023/04/24 12:58:23;;;;;;;4.40;1.10;;;;;;;;;;5059910;28;20049;-62
2023/04/24 13:00:49;;;;;;;10.30;1.40;;;;;;;;;;5068034;28;20457;-62
2023/04/24 13:03:15;;;;;;;6.17;1.23;;;;;;;;;;5059887;28;20049;-62
2023/04/24 13:05:42;;;;;;;7.80;1.70;;;;;;;;;;5054562;28;20103;-62
2023/04/24 13:08:08;;;;;;;8.07;1.97;;;;;;;;;;5070167;28;20456;-63
2023/04/24 13:10:35;;;;;;;8.77;1.80;;;;;;;;;;5070342;28;20040;-62
2023/04/24 13:13:01;;;;;;;11.73;1.83;;;;;;;;;;5060737;28;20041;-62
2023/04/24 13:15:27;;;;;;;12.40;2.10;;;;;;;;;;5054551;28;20068;-62
2023/04/24 13:17:53;;;;;;;11.57;1.87;;;;;;;;;;5062116;28;20041;-62
2023/04/24 13:20:19;;;;;;;5.97;1.47;;;;;;;;;;5062700;28;20048;-62
2023/04/24 13:22:45;;;;;;;7.40;1.70;;;;;;;;;;5070493;28;21721;-61
2023/04/24 13:25:11;;;;;;;5.23;1.20;;;;;;;;;;5058865;28;20132;-62
2023/04/24 13:27:40;;;;;;;7.20;1.50;;;;;;;;;;5067508;28;20052;-62
2023/04/24 13:30:07;;;;;;;6.33;1.47;;;;;;;;;;5070533;28;20070;-62
2023/04/24 13:32:35;;;;;;;9.37;1.30;;;;;;;;;;5069453;28;20052;-62
2023/04/24 13:35:01;;;;;;;5.27;1.07;;;;;;;;;;5069399;28;20070;-62
2023/04/24 13:37:27;;;;;;;5.17;1.00;;;;;;;;;;5071238;28;20048;-62
2023/04/24 13:39:53;;;;;;;11.47;0.97;;;;;;;;;;5068763;28;20472;-62
2023/04/24 13:42:20;;;;;;;8.87;1.10;;;;;;;;;;5057631;28;20041;-62
2023/04/24 13:44:46;;;;;;;5.23;0.83;;;;;;;;;;5050859;28;20083;-62
2023/04/24 13:47:12;;;;;;;6.50;0.97;;;;;;;;;;5051123;28;20504;-62
2023/04/24 13:49:38;;;;;;;4.20;1.40;;;;;;;;;;5050894;28;20060;-62
2023/04/24 13:52:04;;;;;;;7.90;1.40;;;;;;;;;;5056596;28;20044;-62
2023/04/24 13:54:30;;;;;;;9.53;1.53;;;;;;;;;;5054971;28;20056;-62
2023/04/24 13:56:58;;;;;;;6.47;1.20;;;;;;;;;;5055228;28;20084;-62
2023/04/24 13:59:24;;;;;;;12.47;2.43;;;;;;;;;;5057906;28;20037;-62
2023/04/24 14:01:51;;;;;;;7.33;1.80;;;;;;;;;;5055285;28;20418;-62
2023/04/24 14:04:17;;;;;;;7.80;1.83;;;;;;;;;;5067332;28;20044;-62
2023/04/24 14:06:43;;;;;;;10.13;1.80;;;;;;;;;;5055947;28;20052;-63
2023/04/24 14:09:10;;;;;;;14.43;2.60;;;;;;;;;;5069483;28;20411;-61
2023/04/24 14:11:36;;;;;;;10.43;2.57;;;;;;;;;;5061335;28;20045;-61
2023/04/24 14:14:02;;;;;;;18.10;2.43;;;;;;;;;;5049096;28;20045;-61
2023/04/24 14:16:30;;;;;;;10.37;2.53;;;;;;;;;;5066231;28;20190;-61
2023/04/24 14:18:56;;;;;;;15.63;2.43;;;;;;;;;;5054443;28;20549;-61
2023/04/24 14:21:22;;;;;;;14.57;2.93;;;;;;;;;;5055587;28;20064;-63
2023/04/24 14:23:48;;;;;;;12.27;2.67;;;;;;;;;;5063542;28;20048;-61
2023/04/24 14:26:14;;;;;;;9.37;2.50;;;;;;;;;;5063516;28;20094;-61
2023/04/24 14:28:40;;;;;;;9.13;2.37;;;;;;;;;;5070157;28;20059;-62